CYEGCYMM

Guest
Details From CYEG - Edmonton Intl
To CYMM - Fort Mcmurray
Flight Number -
Tags Generated
Created
Modified
Stats Distance 217 nm / 401 km
Max Altitude 0 ft / 0 m
Waypoints 4
Social Downloads 2
Likes 0
Share VATSIM

Download

Looking for another format? Having issues loading an existing format? Contact us
Advertisement - Login to hide

Notes

Generated

Route

CYEG CACHO XIDAG CYMM

ID Type Via Altitude Latitude Longitude Leg Dist Tot Dist Heading (true) Name
O CYEG APT - 0 ft / 0 m 53.30966˚ -113.59611˚ - 0 nm - -
CACHO FIX - 0 ft / 0 m 54.90417˚ -112.56944˚ 102 nm 102 nm 20° / 21° -
XIDAG FIX - 0 ft / 0 m 56.52150˚ -111.31967˚ 105 nm 208 nm 23° / 24° -
O CYMM APT - 0 ft / 0 m 56.65250˚ -111.23695˚ 8 nm 216 nm 19° / 19° -

Altitude Profile

Advertisement - Login to hide

Weather


0- 5 10 15 20 25 30 35+ Temperature / ° C

Clouds and Precipitation
Forecast for 2017-12-18 18:00 UTC. Updated an hour ago

Ground ~20,000 ft ~40,000 ft Winds

CYEG

Details ICAO CYEG (YEG)
Name Edmonton Intl
Region Canada
Timezone America/Edmonton (UTC-7.0)
Stats Elevation 2,373 ft / 723 m (AMSL)
Location 53.309882° -113.580131°
Runways 2
Magnetic Variation 14.343° E

METAR

CYEG 181400Z 29009KT 15SM FEW160 SCT200 M04/M10 A2961 RMK AS1CI2 SLP062

Decode

TAF

TAF TAF CYEG 181140Z 1812/1912 30010KT P6SM SCT100 BKN200 FM181800 28012G22KT P6SM FEW120 FM190800 VRB03KT P6SM FEW020 RMK NXT FCST BY 181500Z

Decode

Departure Runways

ID Width Length Bearing (true) Bearing (mag) Surface Threshold Offset Overrun Length
02 200 ft / 61 m 11,010 ft / 3,356 m 35.39° 21.05° Asphalt 0 ft / 0 m 0 ft / 0 m
12 200 ft / 61 m 10,210 ft / 3,112 m 135.18° 120.84° Asphalt 0 ft / 0 m 0 ft / 0 m
20 200 ft / 61 m 11,010 ft / 3,356 m 215.41° 201.07° Asphalt 0 ft / 0 m 0 ft / 0 m
30 200 ft / 61 m 10,210 ft / 3,112 m 315.21° 300.87° Asphalt 0 ft / 0 m 0 ft / 0 m

CYMM

Details ICAO CYMM (YMM)
Name FORT MCMURRAY
Region Canada
Timezone America/Edmonton (UTC-7.0)
Stats Elevation 1,211 ft / 369 m (AMSL)
Location 56.652639° -111.221950°
Runways 1
Magnetic Variation 13.752° E

METAR

CYMM 181427Z AUTO 33011KT 9SM -SN FEW009 SCT016 BKN023 OVC036 M08/M09 A2945 RMK SLP996

Decode

TAF

TAF CYMM 181238Z 1813/1901 27012G22KT P6SM BKN030 TEMPO 1813/1901 4SM -SN BKN020 RMK FCST BASED ON AUTO OBS. NXT FCST BY 181900Z

Decode

Destination Runways

ID Width Length Bearing (true) Bearing (mag) Surface Threshold Offset Overrun Length
07 150 ft / 46 m 6,019 ft / 1,835 m 89.02° 75.27° Asphalt 0 ft / 0 m 0 ft / 0 m
25 150 ft / 46 m 6,019 ft / 1,835 m 269.05° 255.30° Asphalt 0 ft / 0 m 0 ft / 0 m

Approach Navaids

Runway Type Ident Frequency Range Bearing (true) Bearing (mag) Slope Elevation
25 Localiser IMM 109.90 MHz 18 nm / 33 km 268.96° 255.21° - 1,198 ft / 365 m (AMSL)
25 Glidescope IMM 109.90 MHz 10 nm / 19 km 269.03° 255.28° 3.00° 1,195 ft / 364 m (AMSL)

Popular Alternatives